Time;durP1;ratioP1;P1;durP2;ratioP2;P2;SDS_P1;SDS_P2;PMS_P1;PMS_P2;Temp;Humidity;BMP_temperature;BMP_pressure;BME280_temperature;BME280_humidity;BME280_pressure;Samples;Min_cycle;Max_cycle;Signal;HPM_P1;HPM_P2
2022/01/29 00:00:35;;;;;;;23.63;9.23;;;2.30;99.90;;;;;;5024866;28;20548;-89
2022/01/29 00:03:00;;;;;;;20.70;9.85;;;2.30;99.90;;;;;;5003503;28;20843;-88
2022/01/29 00:05:26;;;;;;;18.33;9.20;;;2.80;99.90;;;;;;5003787;28;20213;-88
2022/01/29 00:07:52;;;;;;;18.40;9.57;;;;;;;;;;4997608;28;20225;-89
2022/01/29 00:10:18;;;;;;;20.90;9.10;;;2.30;99.90;;;;;;5004130;28;20277;-89
2022/01/29 00:12:44;;;;;;;15.23;8.80;;;;;;;;;;5004478;28;20297;-88
2022/01/29 00:15:10;;;;;;;15.38;9.25;;;2.30;99.90;;;;;;5020877;28;20178;-88
2022/01/29 00:17:37;;;;;;;20.10;9.48;;;2.30;99.90;;;;;;5003716;28;20267;-88
2022/01/29 00:20:04;;;;;;;18.90;9.48;;;2.20;99.90;;;;;;5004221;28;20175;-89
2022/01/29 00:22:29;;;;;;;27.15;9.70;;;2.30;99.90;;;;;;4999970;28;20255;-88
2022/01/29 00:24:59;;;;;;;19.60;9.90;;;;;;;;;;5004586;28;20245;-89
2022/01/29 00:27:29;;;;;;;18.65;9.95;;;2.40;99.90;;;;;;5004641;28;20447;-90
2022/01/29 00:29:55;;;;;;;19.88;9.98;;;2.50;99.90;;;;;;5013914;28;20179;-89
2022/01/29 00:32:21;;;;;;;22.60;10.70;;;2.80;99.90;;;;;;4997156;28;20210;-88
2022/01/29 00:34:46;;;;;;;21.27;9.27;;;2.50;99.90;;;;;;4997751;28;20197;-88
2022/01/29 00:37:12;;;;;;;22.87;11.00;;;2.60;99.90;;;;;;5002373;28;20196;-88
2022/01/29 00:39:37;;;;;;;18.20;11.20;;;2.60;99.90;;;;;;5000440;28;20179;-88
2022/01/29 00:42:04;;;;;;;23.03;10.10;;;2.50;99.90;;;;;;5002482;28;20194;-89
2022/01/29 00:44:30;;;;;;;18.25;9.90;;;2.50;99.90;;;;;;5003215;28;20279;-88
2022/01/29 00:46:56;;;;;;;14.33;7.93;;;2.40;99.90;;;;;;5007136;28;20224;-89
2022/01/29 00:49:22;;;;;;;23.83;10.48;;;2.40;99.90;;;;;;5005732;28;20237;-88
2022/01/29 00:51:47;;;;;;;25.30;10.70;;;2.50;99.90;;;;;;5003010;28;20200;-89
2022/01/29 00:54:13;;;;;;;22.93;10.83;;;;;;;;;;5002120;28;20654;-89
2022/01/29 00:56:39;;;;;;;23.10;10.57;;;2.30;99.90;;;;;;5011588;28;20207;-90
2022/01/29 00:59:05;;;;;;;26.20;11.60;;;2.30;99.90;;;;;;5012134;28;21004;-89
2022/01/29 01:01:32;;;;;;;23.87;11.93;;;2.30;99.90;;;;;;5010420;28;20178;-89
2022/01/29 01:03:58;;;;;;;28.67;12.82;;;2.20;99.90;;;;;;5005212;28;20186;-88
2022/01/29 01:06:23;;;;;;;28.73;13.85;;;2.20;99.90;;;;;;5005658;28;20209;-88
2022/01/29 01:08:49;;;;;;;28.70;14.63;;;2.20;99.90;;;;;;5004601;28;20708;-88
2022/01/29 01:11:15;;;;;;;23.97;13.50;;;;;;;;;;5004605;28;20562;-89
2022/01/29 01:13:40;;;;;;;27.93;14.73;;;2.20;99.90;;;;;;5003149;28;20183;-88
2022/01/29 01:16:06;;;;;;;23.27;11.97;;;2.20;99.90;;;;;;5005251;28;20447;-88
2022/01/29 01:18:32;;;;;;;16.03;9.10;;;;;;;;;;4998134;28;20568;-89
2022/01/29 01:20:57;;;;;;;23.90;12.10;;;2.30;99.90;;;;;;5008616;28;20213;-88
2022/01/29 01:23:23;;;;;;;27.13;12.37;;;2.20;99.90;;;;;;5000035;28;20182;-87
2022/01/29 01:25:49;;;;;;;25.50;11.50;;;;;;;;;;5006397;28;20177;-88
2022/01/29 01:28:15;;;;;;;28.23;13.15;;;;;;;;;;5000255;28;20213;-88
2022/01/29 01:30:41;;;;;;;34.47;11.55;;;2.20;99.90;;;;;;5007395;28;20182;-87
2022/01/29 01:33:07;;;;;;;28.83;14.40;;;;;;;;;;4998083;28;20710;-88
2022/01/29 01:35:42;;;;;;;27.38;12.35;;;2.30;99.90;;;;;;5011112;28;20528;-89
2022/01/29 01:38:23;;;;;;;26.23;11.48;;;2.30;99.90;;;;;;5010344;28;20212;-88
2022/01/29 01:40:56;;;;;;;21.90;12.45;;;2.50;99.90;;;;;;5012516;28;20173;-89
2022/01/29 01:43:22;;;;;;;24.15;13.30;;;2.30;99.90;;;;;;4992875;28;20183;-88
2022/01/29 01:45:47;;;;;;;21.77;11.57;;;2.30;99.90;;;;;;5005116;28;20664;-89
2022/01/29 01:48:13;;;;;;;29.67;14.40;;;2.30;99.90;;;;;;5003893;28;20713;-88
2022/01/29 01:50:39;;;;;;;25.20;13.07;;;2.30;99.90;;;;;;5005881;28;20203;-88
2022/01/29 01:53:05;;;;;;;30.07;14.67;;;2.30;99.90;;;;;;5000570;28;20273;-87
2022/01/29 01:55:32;;;;;;;29.42;12.68;;;2.40;99.90;;;;;;5020734;28;20203;-88
2022/01/29 01:57:58;;;;;;;30.58;14.63;;;2.40;99.90;;;;;;5000436;28;20560;-89
2022/01/29 02:00:26;;;;;;;27.15;15.32;;;3.30;99.90;;;;;;5003318;28;20205;-88
2022/01/29 02:02:52;;;;;;;31.52;14.50;;;3.10;99.90;;;;;;5005998;28;20529;-88
2022/01/29 02:05:17;;;;;;;29.30;13.80;;;2.40;99.90;;;;;;5002366;28;20198;-88
2022/01/29 02:07:45;;;;;;;29.37;14.37;;;2.30;99.90;;;;;;5008805;28;20252;-87
2022/01/29 02:10:12;;;;;;;24.67;14.10;;;2.30;99.90;;;;;;5008001;28;20186;-88
2022/01/29 02:12:57;;;;;;;31.48;14.93;;;1.80;99.90;;;;;;5008210;28;20198;-88
2022/01/29 02:15:23;;;;;;;27.33;14.23;;;2.40;99.90;;;;;;5019106;28;20182;-88
2022/01/29 02:17:49;;;;;;;36.28;15.88;;;2.40;99.90;;;;;;5022568;28;20215;-88
2022/01/29 02:20:17;;;;;;;26.88;14.32;;;2.40;99.90;;;;;;5012548;28;20185;-88
2022/01/29 02:22:44;;;;;;;32.47;16.95;;;3.30;99.90;;;;;;5009885;28;20182;-88
2022/01/29 02:25:43;;;;;;;31.85;17.40;;;2.30;99.90;;;;;;5009569;28;20179;-88
2022/01/29 02:28:14;;;;;;;33.80;17.85;;;2.40;99.90;;;;;;5005376;28;20191;-88
2022/01/29 02:30:42;;;;;;;35.75;18.88;;;2.40;99.90;;;;;;5008402;28;20701;-88
2022/01/29 02:33:11;;;;;;;30.75;17.42;;;2.40;99.90;;;;;;5009418;28;20270;-88
2022/01/29 02:35:40;;;;;;;36.65;18.77;;;2.40;99.90;;;;;;5026469;28;20337;-87
2022/01/29 02:38:06;;;;;;;41.28;19.42;;;2.30;99.90;;;;;;5007937;28;20487;-88
2022/01/29 02:40:41;;;;;;;39.37;18.80;;;;;;;;;;5002952;28;20178;-89
2022/01/29 02:43:16;;;;;;;38.03;18.10;;;2.30;99.90;;;;;;5023614;28;20189;-88
2022/01/29 02:45:43;;;;;;;38.67;20.20;;;2.40;99.90;;;;;;5010734;28;20212;-89
2022/01/29 02:48:10;;;;;;;40.58;21.50;;;2.20;99.90;;;;;;5001479;28;20214;-88
2022/01/29 02:50:36;;;;;;;39.38;20.90;;;;;;;;;;5011108;28;20190;-89
2022/01/29 02:53:02;;;;;;;37.88;20.88;;;2.30;99.90;;;;;;5009307;28;20231;-88
2022/01/29 02:55:29;;;;;;;46.53;22.00;;;2.00;99.90;;;;;;4998952;28;20183;-89
2022/01/29 02:57:55;;;;;;;46.95;24.13;;;2.20;99.90;;;;;;5005670;28;20453;-88
2022/01/29 03:00:21;;;;;;;39.00;20.80;;;;;;;;;;5011378;28;20246;-88
2022/01/29 03:02:46;;;;;;;42.33;20.73;;;2.10;99.90;;;;;;5011857;28;20182;-88
2022/01/29 03:05:12;;;;;;;40.47;21.70;;;;;;;;;;5009904;28;20193;-88
2022/01/29 03:07:38;;;;;;;49.03;21.48;;;2.10;99.90;;;;;;5008720;28;20206;-89
2022/01/29 03:10:05;;;;;;;42.80;21.00;;;3.10;99.90;;;;;;5009446;28;20189;-89
2022/01/29 03:12:31;;;;;;;37.10;19.75;;;2.20;99.90;;;;;;5008686;28;21732;-88
2022/01/29 03:14:57;;;;;;;37.80;19.17;;;2.70;99.90;;;;;;4999269;28;20197;-87
2022/01/29 03:17:23;;;;;;;39.53;20.73;;;;;;;;;;5006049;28;20190;-88
2022/01/29 03:19:52;;;;;;;40.00;21.30;;;;;;;;;;5011389;28;20513;-88
2022/01/29 03:22:18;;;;;;;44.90;21.67;;;;;;;;;;5016808;28;20449;-89
2022/01/29 03:24:44;;;;;;;35.05;19.40;;;;;;;;;;5011491;28;20253;-88
2022/01/29 03:27:09;;;;;;;32.22;18.50;;;2.10;99.90;;;;;;5006866;28;20195;-88
2022/01/29 03:29:35;;;;;;;41.90;20.80;;;;;;;;;;5006967;28;20189;-88
2022/01/29 03:32:02;;;;;;;39.13;19.37;;;2.10;99.90;;;;;;5009291;28;20235;-88
2022/01/29 03:34:27;;;;;;;27.85;16.27;;;2.20;99.90;;;;;;5016725;28;20437;-89
2022/01/29 03:36:55;;;;;;;36.57;19.07;;;;;;;;;;5017083;28;20295;-89
2022/01/29 03:39:25;;;;;;;36.88;18.33;;;2.20;99.90;;;;;;5004389;28;20232;-87
2022/01/29 03:41:51;;;;;;;30.25;17.63;;;2.20;99.90;;;;;;5008918;28;20623;-88
2022/01/29 03:44:17;;;;;;;33.67;18.57;;;;;;;;;;5005429;28;20835;-87
2022/01/29 03:46:44;;;;;;;34.45;17.08;;;2.20;99.90;;;;;;5008221;28;20190;-88
2022/01/29 03:49:09;;;;;;;33.53;17.17;;;2.20;99.90;;;;;;5007929;28;20206;-88
2022/01/29 03:51:35;;;;;;;35.90;18.33;;;2.20;99.90;;;;;;5009479;28;20237;-88
2022/01/29 03:54:00;;;;;;;32.30;17.97;;;2.10;99.90;;;;;;5008248;28;20197;-88
2022/01/29 03:56:26;;;;;;;32.77;15.87;;;;;;;;;;5016975;28;20179;-88
2022/01/29 03:58:52;;;;;;;32.30;16.70;;;2.20;99.90;;;;;;5003851;28;20248;-88
2022/01/29 04:01:18;;;;;;;36.40;16.33;;;2.90;99.90;;;;;;4999660;28;20191;-87
2022/01/29 04:03:43;;;;;;;29.60;16.27;;;2.20;99.90;;;;;;5008979;28;20250;-87
2022/01/29 04:06:10;;;;;;;27.70;16.20;;;;;;;;;;5005095;28;20266;-89
2022/01/29 04:08:40;;;;;;;28.65;16.40;;;2.20;99.90;;;;;;5007063;28;20210;-87
2022/01/29 04:11:13;;;;;;;24.48;13.80;;;2.20;99.90;;;;;;5004323;28;20186;-90
2022/01/29 04:13:43;;;;;;;29.83;13.82;;;2.20;99.90;;;;;;5022126;28;20186;-87
2022/01/29 04:16:08;;;;;;;28.55;15.13;;;2.20;99.90;;;;;;5010262;28;20175;-90
2022/01/29 04:18:34;;;;;;;28.23;13.63;;;;;;;;;;5010413;28;20961;-89
2022/01/29 04:21:01;;;;;;;27.27;14.60;;;2.20;99.90;;;;;;5010099;28;20182;-88
2022/01/29 04:23:27;;;;;;;27.70;12.63;;;;;;;;;;5006584;28;20178;-88
2022/01/29 04:25:53;;;;;;;23.65;12.18;;;;;;;;;;5017546;28;20177;-91
2022/01/29 04:28:28;;;;;;;26.38;14.13;;;2.10;99.90;;;;;;5012017;28;20296;-88
2022/01/29 04:30:59;;;;;;;32.53;13.27;;;2.10;99.90;;;;;;5009627;28;20189;-89
2022/01/29 04:33:28;;;;;;;22.08;11.18;;;2.10;99.90;;;;;;5008297;28;20245;-88
2022/01/29 04:35:55;;;;;;;27.23;13.38;;;2.00;99.90;;;;;;5008359;28;20804;-88
2022/01/29 04:38:21;;;;;;;22.02;12.27;;;;;;;;;;5003496;28;20723;-89
2022/01/29 04:40:47;;;;;;;25.17;14.63;;;;;;;;;;5001402;28;20217;-90
2022/01/29 04:43:13;;;;;;;29.90;13.67;;;;;;;;;;5023295;28;20430;-89
2022/01/29 04:45:40;;;;;;;18.02;10.18;;;2.10;99.90;;;;;;5009711;28;20445;-88
2022/01/29 04:48:06;;;;;;;19.17;9.75;;;2.10;99.90;;;;;;5011120;28;20206;-89
2022/01/29 04:50:32;;;;;;;16.37;8.70;;;;;;;;;;5007130;28;20202;-88
2022/01/29 04:52:58;;;;;;;19.92;11.23;;;2.10;99.90;;;;;;5000748;28;20233;-88
2022/01/29 04:55:23;;;;;;;22.83;10.30;;;;;;;;;;5028420;28;20190;-88
2022/01/29 04:57:49;;;;;;;19.30;7.33;;;;;;;;;;5007118;28;20254;-89
2022/01/29 05:00:20;;;;;;;18.20;7.87;;;2.10;99.90;;;;;;5009897;28;20437;-89
2022/01/29 05:02:54;;;;;;;18.67;8.30;;;2.10;99.90;;;;;;5009234;28;20479;-88
2022/01/29 05:05:21;;;;;;;12.45;7.15;;;2.10;99.90;;;;;;5012684;28;20181;-89
2022/01/29 05:07:47;;;;;;;14.20;7.40;;;;;;;;;;5008504;28;20625;-89
2022/01/29 05:10:14;;;;;;;17.33;9.55;;;2.10;99.90;;;;;;5007136;28;20182;-89
2022/01/29 05:12:54;;;;;;;17.13;7.38;;;;;;;;;;5006368;28;20293;-88
2022/01/29 05:28:57;;;;;;;18.83;8.63;;;2.00;99.90;;;;;;5008597;28;20298;-88
2022/01/29 05:31:22;;;;;;;25.20;9.17;;;2.00;99.90;;;;;;5008397;28;20202;-89
2022/01/29 05:33:48;;;;;;;16.50;8.67;;;1.90;99.90;;;;;;5009329;28;20757;-88
2022/01/29 05:36:14;;;;;;;21.97;9.53;;;;;;;;;;5008942;28;20190;-89
2022/01/29 05:38:40;;;;;;;23.88;10.07;;;1.90;99.90;;;;;;5001145;28;20209;-90
2022/01/29 05:41:06;;;;;;;21.90;9.60;;;1.90;99.90;;;;;;4996471;28;20251;-87
2022/01/29 05:43:32;;;;;;;16.90;8.47;;;;;;;;;;5002631;28;22061;-88
2022/01/29 05:45:58;;;;;;;21.65;10.57;;;1.80;99.90;;;;;;5007635;28;20182;-88
2022/01/29 05:48:24;;;;;;;26.98;11.80;;;1.80;99.90;;;;;;5006016;28;20203;-88
2022/01/29 05:50:50;;;;;;;18.87;9.13;;;;;;;;;;5006240;28;20197;-90
2022/01/29 05:53:15;;;;;;;17.90;6.43;;;1.80;99.90;;;;;;5009886;28;20244;-88
2022/01/29 05:55:41;;;;;;;15.73;7.27;;;;;;;;;;5010794;28;20660;-88
2022/01/29 05:58:07;;;;;;;22.57;10.10;;;;;;;;;;5003934;28;20202;-90
2022/01/29 06:00:33;;;;;;;25.20;11.50;;;;;;;;;;5009742;28;20474;-88
2022/01/29 06:03:04;;;;;;;29.98;13.32;;;1.70;99.90;;;;;;5005656;28;20638;-88
2022/01/29 06:05:30;;;;;;;18.58;9.60;;;2.90;99.90;;;;;;5007876;28;20182;-89
2022/01/29 06:07:56;;;;;;;25.30;10.27;;;;;;;;;;5008958;28;20201;-89
2022/01/29 06:10:23;;;;;;;20.75;9.65;;;1.80;99.90;;;;;;5002636;28;20487;-87
2022/01/29 06:13:05;;;;;;;22.92;9.35;;;1.90;99.90;;;;;;4999231;28;20190;-88
2022/01/29 06:15:38;;;;;;;22.88;10.07;;;1.80;99.90;;;;;;5023929;28;21749;-87
2022/01/29 06:18:03;;;;;;;24.75;10.27;;;1.90;99.90;;;;;;5000016;28;20205;-86
2022/01/29 06:20:29;;;;;;;25.53;11.27;;;1.80;99.90;;;;;;5005132;28;20199;-87
2022/01/29 06:22:55;;;;;;;19.30;10.30;;;1.90;99.90;;;;;;5007929;28;20246;-87
2022/01/29 06:25:21;;;;;;;21.00;9.90;;;2.20;99.90;;;;;;5005850;28;20790;-87
2022/01/29 06:27:47;;;;;;;22.90;10.10;;;;;;;;;;5002468;28;20202;-87
2022/01/29 06:30:13;;;;;;;19.65;10.07;;;1.90;99.90;;;;;;4995980;28;20185;-89
2022/01/29 06:32:38;;;;;;;14.70;8.07;;;2.00;99.90;;;;;;5002734;28;20258;-88
2022/01/29 06:35:04;;;;;;;19.03;9.37;;;;;;;;;;5004952;28;20270;-88
2022/01/29 06:37:30;;;;;;;17.33;7.65;;;2.10;99.90;;;;;;5001996;28;20198;-88
2022/01/29 06:39:56;;;;;;;13.60;8.20;;;;;;;;;;4998075;28;20212;-87
2022/01/29 06:42:22;;;;;;;18.87;9.67;;;;;;;;;;4994108;28;20202;-87
2022/01/29 06:44:48;;;;;;;19.17;9.27;;;;;;;;;;5001076;28;20459;-88
2022/01/29 06:47:14;;;;;;;15.47;8.40;;;;;;;;;;4999716;28;20441;-87
2022/01/29 06:49:39;;;;;;;16.87;8.80;;;2.20;99.90;;;;;;5005119;28;20480;-88
2022/01/29 06:52:05;;;;;;;17.17;8.93;;;2.20;99.90;;;;;;5004702;28;20464;-88
2022/01/29 06:54:31;;;;;;;14.83;8.57;;;;;;;;;;5002796;28;20765;-88
2022/01/29 06:56:57;;;;;;;21.33;10.82;;;2.20;99.90;;;;;;5006444;28;20952;-88
2022/01/29 06:59:23;;;;;;;19.40;8.80;;;;;;;;;;5003065;28;20198;-88
2022/01/29 07:01:48;;;;;;;24.90;8.13;;;;;;;;;;4999172;28;20264;-87
2022/01/29 07:04:14;;;;;;;17.77;8.17;;;2.10;99.90;;;;;;5005268;28;20437;-87
2022/01/29 07:06:40;;;;;;;15.10;8.83;;;;;;;;;;5002372;28;20613;-88
2022/01/29 07:09:06;;;;;;;17.75;9.40;;;2.20;99.90;;;;;;5003858;28;20515;-87
2022/01/29 07:11:31;;;;;;;18.80;9.33;;;2.20;99.90;;;;;;5001195;28;20210;-87
2022/01/29 07:14:04;;;;;;;19.10;9.03;;;;;;;;;;4994558;28;20190;-88
2022/01/29 07:16:36;;;;;;;21.83;9.40;;;2.20;99.90;;;;;;4989470;28;20170;-88
2022/01/29 07:19:03;;;;;;;19.80;9.73;;;2.30;99.90;;;;;;4989127;28;20203;-87
2022/01/29 07:21:29;;;;;;;13.95;7.25;;;2.30;99.90;;;;;;4987393;28;20191;-87
2022/01/29 07:23:56;;;;;;;15.55;8.40;;;2.30;99.90;;;;;;4996733;28;20244;-88
2022/01/29 07:26:21;;;;;;;16.70;8.60;;;2.30;99.90;;;;;;5013074;28;20194;-87
2022/01/29 07:28:47;;;;;;;18.70;9.87;;;2.60;99.90;;;;;;4986283;28;20262;-88
2022/01/29 07:31:13;;;;;;;20.30;10.27;;;;;;;;;;5000112;28;20193;-87
2022/01/29 07:33:39;;;;;;;18.77;9.90;;;2.40;99.90;;;;;;5008057;28;20214;-88
2022/01/29 07:36:05;;;;;;;18.63;9.80;;;2.50;99.90;;;;;;5019454;28;20194;-88
2022/01/29 07:38:30;;;;;;;16.83;10.70;;;2.60;99.90;;;;;;4999076;28;20210;-87
2022/01/29 07:40:56;;;;;;;16.17;9.50;;;2.60;99.90;;;;;;5011655;28;20198;-87
2022/01/29 07:43:22;;;;;;;20.53;9.10;;;2.60;99.90;;;;;;5007906;27;20888;-88
2022/01/29 07:45:48;;;;;;;21.10;10.50;;;2.70;99.90;;;;;;5005201;28;20187;-87
2022/01/29 07:48:14;;;;;;;16.17;10.00;;;;;;;;;;4996386;28;20209;-87
2022/01/29 07:50:40;;;;;;;18.33;9.17;;;;;;;;;;5002976;28;20198;-89
2022/01/29 07:53:06;;;;;;;18.20;9.43;;;;;;;;;;5000691;28;20484;-88
2022/01/29 07:55:31;;;;;;;22.15;9.68;;;2.80;99.90;;;;;;4997451;28;20437;-87
2022/01/29 07:57:58;;;;;;;17.80;8.97;;;3.00;99.90;;;;;;4997779;28;20728;-87
2022/01/29 08:00:24;;;;;;;16.40;8.77;;;2.90;99.90;;;;;;5004652;28;20185;-87
2022/01/29 08:02:50;;;;;;;15.00;8.50;;;;;;;;;;5006323;28;20178;-87
2022/01/29 08:05:16;;;;;;;14.73;7.97;;;3.00;99.90;;;;;;5002285;28;20186;-87
2022/01/29 08:07:41;;;;;;;18.90;10.00;;;3.10;99.90;;;;;;5006188;28;20590;-87
2022/01/29 08:10:08;;;;;;;21.57;10.10;;;3.00;99.90;;;;;;5001555;28;20859;-87
2022/01/29 08:12:34;;;;;;;19.00;10.30;;;3.20;99.90;;;;;;5002260;28;20653;-88
2022/01/29 08:15:00;;;;;;;15.85;8.27;;;3.20;99.90;;;;;;5005112;28;20577;-87
2022/01/29 08:17:26;;;;;;;19.33;9.10;;;3.30;99.90;;;;;;5005216;28;20178;-88
2022/01/29 08:19:52;;;;;;;16.00;9.23;;;;;;;;;;5006277;28;20179;-88
2022/01/29 08:22:18;;;;;;;15.80;9.20;;;;;;;;;;5004928;28;22015;-88
2022/01/29 08:24:44;;;;;;;23.50;10.48;;;;;;;;;;5005181;28;20434;-87
2022/01/29 08:27:10;;;;;;;16.80;9.00;;;;;;;;;;5018618;28;20186;-87
2022/01/29 08:29:37;;;;;;;18.10;8.83;;;3.40;99.90;;;;;;5000225;28;20433;-87
2022/01/29 08:32:03;;;;;;;15.57;7.93;;;3.50;99.90;;;;;;5004246;28;20469;-88
2022/01/29 08:34:29;;;;;;;13.57;7.13;;;3.60;99.90;;;;;;4983481;28;20175;-88
2022/01/29 08:36:58;;;;;;;16.40;9.53;;;;;;;;;;4982287;28;20178;-87
2022/01/29 08:39:24;;;;;;;19.17;9.15;;;3.50;99.90;;;;;;4984046;28;20270;-87
2022/01/29 08:41:50;;;;;;;18.17;8.15;;;3.50;99.90;;;;;;4999709;28;20179;-87
2022/01/29 08:44:16;;;;;;;19.03;9.67;;;3.70;99.90;;;;;;4990348;28;20729;-87
2022/01/29 08:46:42;;;;;;;17.20;9.00;;;;;;;;;;4993358;28;20820;-88
2022/01/29 08:49:07;;;;;;;14.70;9.60;;;4.10;99.90;;;;;;4998815;28;20205;-88
2022/01/29 08:51:34;;;;;;;14.70;6.97;;;4.20;99.90;;;;;;5002113;28;21038;-88
2022/01/29 08:53:59;;;;;;;13.73;7.45;;;4.20;99.90;;;;;;5011436;28;20171;-89
2022/01/29 08:56:25;;;;;;;10.63;6.50;;;;;;;;;;5026383;28;20226;-88
2022/01/29 08:58:51;;;;;;;9.80;5.23;;;;;;;;;;4998757;28;20207;-88
2022/01/29 09:01:17;;;;;;;13.85;5.75;;;;;;;;;;5006746;28;20458;-88
2022/01/29 09:03:44;;;;;;;11.02;6.60;;;4.50;99.90;;;;;;5003835;28;20193;-87
2022/01/29 09:06:10;;;;;;;12.82;6.40;;;4.60;99.90;;;;;;5003374;28;20794;-87
2022/01/29 09:08:36;;;;;;;11.85;6.97;;;4.70;99.90;;;;;;5004373;28;20230;-87
2022/01/29 09:11:02;;;;;;;11.13;5.63;;;4.80;99.90;;;;;;5006383;28;20684;-88
2022/01/29 09:13:28;;;;;;;15.40;7.47;;;;;;;;;;5001334;28;20203;-87
2022/01/29 09:15:55;;;;;;;8.35;5.50;;;4.80;99.90;;;;;;4994439;28;20438;-86
2022/01/29 09:18:21;;;;;;;10.65;5.22;;;4.80;99.90;;;;;;4998255;28;20230;-87
2022/01/29 09:20:46;;;;;;;9.30;5.80;;;4.80;99.90;;;;;;4997926;28;20279;-86
2022/01/29 09:23:13;;;;;;;10.07;5.23;;;;;;;;;;4998993;28;20235;-88
2022/01/29 09:25:40;;;;;;;13.10;5.90;;;5.10;99.90;;;;;;5000384;28;20235;-88
2022/01/29 09:28:06;;;;;;;9.13;4.28;;;5.10;99.90;;;;;;4997989;28;21405;-88
2022/01/29 09:30:34;;;;;;;11.23;5.38;;;5.10;99.90;;;;;;5002307;28;20182;-88
2022/01/29 09:32:59;;;;;;;11.27;5.88;;;5.20;99.90;;;;;;5000030;28;20201;-87
2022/01/29 09:35:26;;;;;;;10.30;5.47;;;5.10;99.90;;;;;;5001893;28;20190;-88
2022/01/29 09:37:52;;;;;;;8.07;5.00;;;5.10;99.90;;;;;;5002121;28;20201;-88
2022/01/29 09:40:18;;;;;;;9.87;4.73;;;;;;;;;;5002765;28;20182;-86
2022/01/29 09:42:46;;;;;;;13.93;4.75;;;5.40;99.90;;;;;;5005616;28;20526;-87
2022/01/29 09:45:13;;;;;;;10.32;5.15;;;5.40;99.90;;;;;;4996922;28;20190;-87
2022/01/29 09:47:45;;;;;;;10.13;4.95;;;5.80;99.90;;;;;;5001865;28;20201;-86
2022/01/29 09:50:12;;;;;;;7.25;4.00;;;5.90;99.90;;;;;;5006182;28;20267;-87
2022/01/29 09:52:38;;;;;;;7.25;4.43;;;6.10;99.90;;;;;;5000100;28;20213;-87
2022/01/29 09:55:06;;;;;;;9.13;4.13;;;6.10;99.90;;;;;;5001320;28;20175;-86
2022/01/29 09:57:32;;;;;;;6.70;4.00;;;5.70;99.90;;;;;;4999488;28;20461;-87
2022/01/29 09:59:57;;;;;;;5.87;3.50;;;5.70;99.90;;;;;;4996862;28;20270;-86
2022/01/29 10:02:23;;;;;;;8.47;3.80;;;5.70;99.90;;;;;;5005041;28;20182;-87
2022/01/29 10:04:54;;;;;;;8.80;3.80;;;5.80;99.90;;;;;;4998868;28;20238;-86
2022/01/29 10:07:29;;;;;;;9.63;4.40;;;6.00;99.90;;;;;;5005681;28;20186;-86
2022/01/29 10:09:56;;;;;;;9.07;3.30;;;5.90;99.90;;;;;;5001044;28;20188;-87
2022/01/29 10:12:28;;;;;;;6.68;3.90;;;6.00;99.90;;;;;;5006398;28;20213;-85
2022/01/29 10:14:56;;;;;;;9.23;4.10;;;5.90;99.90;;;;;;5007101;28;20179;-85
2022/01/29 10:17:46;;;;;;;4.47;2.85;;;5.90;99.90;;;;;;5003748;28;20190;-86
2022/01/29 10:20:19;;;;;;;8.45;3.28;;;5.90;99.90;;;;;;5001905;28;21141;-86
2022/01/29 10:22:51;;;;;;;4.82;2.65;;;5.80;99.90;;;;;;5002180;28;20179;-86
2022/01/29 10:25:20;;;;;;;6.93;3.90;;;5.80;99.90;;;;;;5008969;28;20183;-86
2022/01/29 10:28:07;;;;;;;4.15;2.78;;;6.10;99.90;;;;;;5000903;28;20199;-86
2022/01/29 10:30:50;;;;;;;9.00;3.60;;;6.20;99.90;;;;;;4995913;28;20861;-86
2022/01/29 10:33:20;;;;;;;7.00;3.20;;;6.30;99.90;;;;;;4997882;28;20198;-86
2022/01/29 10:36:06;;;;;;;5.47;3.03;;;6.20;99.90;;;;;;5006642;28;20175;-87
2022/01/29 10:38:41;;;;;;;6.60;2.50;;;6.10;99.90;;;;;;4998566;28;20992;-86
2022/01/29 10:41:30;;;;;;;4.57;3.35;;;5.80;99.90;;;;;;5005177;28;20174;-86
2022/01/29 10:44:20;;;;;;;3.47;2.30;;;5.80;99.90;;;;;;5002236;28;20873;-85
2022/01/29 10:46:48;;;;;;;5.75;2.97;;;5.90;99.90;;;;;;5005188;28;20183;-87
2022/01/29 10:49:26;;;;;;;2.75;1.98;;;6.20;99.90;;;;;;5005990;28;20198;-86
2022/01/29 10:52:13;;;;;;;3.28;2.33;;;6.20;99.90;;;;;;5022137;28;20689;-85
2022/01/29 10:54:42;;;;;;;4.00;2.70;;;7.00;99.90;;;;;;5006647;28;20212;-86
2022/01/29 10:57:13;;;;;;;6.90;2.65;;;6.30;99.90;;;;;;5004616;28;20177;-86
2022/01/29 10:59:50;;;;;;;4.50;2.05;;;6.30;99.90;;;;;;4996057;28;20179;-86
2022/01/29 11:02:17;;;;;;;2.53;1.50;;;6.30;99.90;;;;;;5005303;28;20196;-85
2022/01/29 11:04:44;;;;;;;2.67;1.60;;;;;;;;;;5008252;28;20242;-84
2022/01/29 11:07:16;;;;;;;4.90;3.00;;;6.50;99.90;;;;;;5007445;28;20186;-85
2022/01/29 11:09:43;;;;;;;3.38;1.63;;;6.60;99.90;;;;;;5004897;28;20175;-86
2022/01/29 11:12:10;;;;;;;2.83;1.70;;;6.40;99.90;;;;;;5008067;28;20190;-86
2022/01/29 11:14:38;;;;;;;3.05;1.85;;;6.50;99.90;;;;;;5008971;28;20186;-86
2022/01/29 11:17:04;;;;;;;2.50;1.65;;;;;;;;;;5008422;28;20171;-86
2022/01/29 11:19:34;;;;;;;3.15;2.08;;;;;;;;;;5004835;28;20195;-87
2022/01/29 11:22:04;;;;;;;1.83;1.55;;;6.30;99.90;;;;;;4997949;28;20192;-86
2022/01/29 11:24:31;;;;;;;2.20;1.60;;;;;;;;;;5005189;28;20197;-86
2022/01/29 11:26:56;;;;;;;2.53;1.55;;;6.30;99.90;;;;;;5006023;28;20191;-85
2022/01/29 11:29:29;;;;;;;4.50;2.10;;;6.30;99.90;;;;;;5000948;28;20454;-86
2022/01/29 11:32:23;;;;;;;2.88;1.40;;;6.20;99.90;;;;;;5008397;28;20194;-85
2022/01/29 11:35:28;;;;;;;3.85;1.63;;;6.20;99.90;;;;;;5019743;28;20249;-84
2022/01/29 11:38:08;;;;;;;1.73;1.40;;;6.30;99.90;;;;;;5009635;28;20198;-86
2022/01/29 11:40:54;;;;;;;4.53;2.50;;;6.20;99.90;;;;;;5021603;28;20185;-85
2022/01/29 11:43:19;;;;;;;4.00;1.80;;;6.20;99.90;;;;;;5005527;28;20199;-85
2022/01/29 11:46:10;;;;;;;3.80;1.83;;;6.20;99.90;;;;;;5015734;28;20870;-84
2022/01/29 11:48:49;;;;;;;4.57;1.50;;;6.30;99.90;;;;;;5009954;28;20477;-86
2022/01/29 11:51:35;;;;;;;3.05;1.65;;;6.20;99.90;;;;;;5007905;28;20189;-85
2022/01/29 11:54:00;;;;;;;2.65;1.80;;;6.10;99.90;;;;;;5007959;28;20208;-85
2022/01/29 11:56:30;;;;;;;3.03;1.70;;;5.90;99.90;;;;;;5010856;28;20179;-86
2022/01/29 11:59:17;;;;;;;3.90;1.45;;;6.00;99.90;;;;;;5005289;28;20206;-85
2022/01/29 12:01:44;;;;;;;3.08;1.65;;;6.00;99.90;;;;;;5013502;28;20186;-85
2022/01/29 12:04:10;;;;;;;2.42;1.98;;;;;;;;;;5011475;28;20183;-85
2022/01/29 12:06:42;;;;;;;1.67;1.35;;;5.90;99.90;;;;;;5011917;28;20258;-85
2022/01/29 12:09:19;;;;;;;3.97;1.80;;;6.00;99.90;;;;;;5013638;28;20204;-86
2022/01/29 12:12:13;;;;;;;3.05;1.73;;;5.90;99.90;;;;;;5007051;28;20200;-85
2022/01/29 12:14:40;;;;;;;2.35;1.45;;;6.00;99.90;;;;;;5003459;28;20194;-84
2022/01/29 12:17:07;;;;;;;2.30;1.50;;;5.90;99.90;;;;;;5003190;28;20186;-85
2022/01/29 12:19:46;;;;;;;2.85;1.70;;;5.90;99.90;;;;;;5007196;28;20281;-85
2022/01/29 12:22:17;;;;;;;3.25;1.63;;;5.80;99.90;;;;;;5005436;28;20186;-87
2022/01/29 12:24:52;;;;;;;3.67;2.10;;;6.00;99.90;;;;;;5009125;28;20284;-85
2022/01/29 12:27:18;;;;;;;2.65;1.85;;;;;;;;;;5005026;28;20182;-86
2022/01/29 12:29:44;;;;;;;5.50;2.10;;;6.10;99.90;;;;;;5005867;28;20197;-85
2022/01/29 12:32:10;;;;;;;5.43;2.60;;;6.10;99.90;;;;;;5003584;28;20815;-87
2022/01/29 12:34:37;;;;;;;3.00;1.70;;;6.10;99.90;;;;;;5001123;28;20558;-88
2022/01/29 12:37:15;;;;;;;3.67;2.00;;;5.90;99.90;;;;;;5003868;28;20179;-85
2022/01/29 12:39:46;;;;;;;2.65;1.95;;;5.90;99.90;;;;;;5002625;28;20202;-86
2022/01/29 12:44:51;;;;;;;6.38;3.90;;;6.00;99.90;;;;;;5007280;28;20203;-85
2022/01/29 12:47:29;;;;;;;6.65;3.03;;;6.60;99.90;;;;;;5011740;28;20213;-85
2022/01/29 12:49:55;;;;;;;2.75;2.20;;;;;;;;;;5011261;28;20190;-85
2022/01/29 12:52:21;;;;;;;6.03;2.37;;;5.90;99.90;;;;;;5011881;28;20624;-85
2022/01/29 12:54:52;;;;;;;6.93;1.75;;;5.90;99.90;;;;;;5011579;28;20466;-85
2022/01/29 12:57:18;;;;;;;1.80;1.67;;;5.60;99.90;;;;;;5020341;28;20216;-86
2022/01/29 12:59:44;;;;;;;3.73;2.27;;;;;;;;;;5019283;28;20199;-86
2022/01/29 13:02:09;;;;;;;2.23;1.70;;;6.10;99.90;;;;;;5005711;22;20222;-83
2022/01/29 13:04:35;;;;;;;9.47;3.40;;;6.10;99.90;;;;;;4991308;28;20422;-81
2022/01/29 13:07:04;;;;;;;5.53;2.50;;;6.00;99.90;;;;;;4984199;28;20203;-82
2022/01/29 13:09:34;;;;;;;5.20;2.17;;;6.00;99.90;;;;;;4996749;28;20226;-81
2022/01/29 13:12:12;;;;;;;2.28;1.10;;;6.00;99.90;;;;;;4996808;28;20194;-81
2022/01/29 13:14:38;;;;;;;3.42;1.85;;;5.90;99.90;;;;;;4988831;28;20355;-81
2022/01/29 13:17:06;;;;;;;1.85;1.40;;;5.80;99.90;;;;;;5025125;22;20222;-83
2022/01/29 13:19:32;;;;;;;2.15;1.63;;;5.90;99.90;;;;;;4980382;28;20184;-82
2022/01/29 13:22:00;;;;;;;29.95;10.73;;;6.00;99.90;;;;;;4996299;28;20251;-81
2022/01/29 13:24:44;;;;;;;2.65;1.75;;;5.90;99.90;;;;;;4996227;28;20307;-87
2022/01/29 13:27:12;;;;;;;2.55;1.75;;;5.90;99.90;;;;;;4990657;28;20269;-81
2022/01/29 13:29:53;;;;;;;2.85;1.10;;;6.00;99.90;;;;;;4997796;28;20194;-83